createdAt,value
2024-05-09T00:00:29.658Z,2.47
2024-05-09T00:03:34.158Z,2.20
2024-05-09T00:06:36.323Z,2.30
2024-05-09T00:09:38.534Z,2.25
2024-05-09T00:12:40.737Z,2.55
2024-05-09T00:15:42.696Z,2.13
2024-05-09T00:18:45.226Z,2.20
2024-05-09T00:21:47.304Z,2.30
2024-05-09T00:24:50.400Z,2.13
2024-05-09T00:30:54.939Z,2.20
2024-05-09T00:33:57.197Z,2.23
2024-05-09T00:36:59.549Z,2.22
2024-05-09T00:40:01.478Z,2.30
2024-05-09T00:43:03.645Z,2.28
2024-05-09T00:46:06.435Z,2.25
2024-05-09T00:49:09.557Z,2.70
2024-05-09T00:52:12.115Z,2.80
2024-05-09T00:55:16.323Z,2.40
2024-05-09T00:58:22.478Z,2.47
2024-05-09T01:01:25.118Z,2.42
2024-05-09T01:04:27.141Z,2.47
2024-05-09T01:07:29.291Z,2.22
2024-05-09T01:10:34.849Z,2.40
2024-05-09T01:13:38.172Z,2.10
2024-05-09T01:16:40.602Z,2.43
2024-05-09T01:19:43.022Z,2.45
2024-05-09T01:22:45.736Z,2.38
2024-05-09T01:25:48.233Z,2.60
2024-05-09T01:28:50.313Z,2.58
2024-05-09T01:31:52.708Z,2.42
2024-05-09T01:34:54.834Z,2.30
2024-05-09T01:37:56.918Z,2.63
2024-05-09T01:40:59.013Z,2.40
2024-05-09T01:44:01.429Z,2.35
2024-05-09T01:47:03.961Z,2.40
2024-05-09T01:50:09.089Z,2.45
2024-05-09T01:53:14.935Z,2.05
2024-05-09T01:56:17.771Z,2.28
2024-05-09T01:59:20.109Z,2.78
2024-05-09T02:02:22.175Z,2.70
2024-05-09T02:05:24.649Z,2.22
2024-05-09T02:08:26.897Z,2.20
2024-05-09T02:11:29.288Z,2.20
2024-05-09T02:14:31.517Z,1.83
2024-05-09T02:17:33.770Z,1.90
2024-05-09T02:20:39.284Z,2.05
2024-05-09T02:23:41.454Z,2.00
2024-05-09T02:26:43.537Z,1.77
2024-05-09T02:29:46.026Z,1.55
2024-05-09T02:32:48.384Z,1.38
2024-05-09T02:35:50.506Z,1.75
2024-05-09T02:38:52.540Z,1.50
2024-05-09T02:41:54.590Z,1.40
2024-05-09T02:44:56.747Z,1.80
2024-05-09T02:47:59.104Z,1.20
2024-05-09T02:51:02.998Z,1.50
2024-05-09T02:54:05.420Z,1.40
2024-05-09T02:57:07.765Z,1.23
2024-05-09T03:00:18.299Z,1.15
2024-05-09T03:03:21.386Z,1.40
2024-05-09T03:06:23.827Z,1.30
2024-05-09T03:09:26.137Z,1.60
2024-05-09T03:12:28.854Z,1.23
2024-05-09T03:15:33.212Z,1.20
2024-05-09T03:18:35.820Z,1.38
2024-05-09T03:21:40.086Z,1.20
2024-05-09T03:24:42.208Z,1.00
2024-05-09T03:27:44.324Z,1.00
2024-05-09T03:30:47.844Z,1.20
2024-05-09T03:33:50.429Z,1.30
2024-05-09T03:36:53.170Z,1.38
2024-05-09T03:39:55.430Z,1.17
2024-05-09T03:42:58.068Z,1.10
2024-05-09T03:46:00.461Z,1.20
2024-05-09T03:49:03.345Z,1.10
2024-05-09T03:55:08.579Z,1.17
2024-05-09T03:58:13.212Z,0.98
2024-05-09T04:01:15.742Z,1.10
2024-05-09T04:04:18.059Z,1.20
2024-05-09T04:07:20.311Z,1.15
2024-05-09T04:10:30.493Z,1.30
2024-05-09T04:13:35.935Z,1.10
2024-05-09T04:16:38.733Z,1.10
2024-05-09T04:19:41.952Z,1.05
2024-05-09T04:22:44.232Z,1.33
2024-05-09T04:25:46.962Z,1.00
2024-05-09T04:28:49.138Z,1.02
2024-05-09T04:31:52.422Z,1.03
2024-05-09T04:34:54.675Z,1.13
2024-05-09T04:37:56.714Z,1.10
2024-05-09T04:40:58.852Z,1.33
2024-05-09T04:44:01.057Z,1.05
2024-05-09T04:47:04.471Z,1.20
2024-05-09T04:50:14.524Z,1.00
2024-05-09T04:53:20.257Z,0.95
2024-05-09T04:56:23.297Z,1.05
2024-05-09T04:59:26.286Z,1.13
2024-05-09T05:05:31.299Z,1.10
2024-05-09T05:08:35.208Z,1.20
2024-05-09T05:11:37.964Z,1.17
2024-05-09T05:14:40.763Z,1.00
2024-05-09T05:17:44.126Z,0.90
2024-05-09T05:20:47.806Z,1.10
2024-05-09T05:23:50.370Z,1.17
2024-05-09T05:26:53.158Z,1.00
2024-05-09T05:29:55.598Z,1.10
2024-05-09T05:32:58.942Z,0.95
2024-05-09T05:36:01.406Z,1.10
2024-05-09T05:39:03.789Z,0.93
2024-05-09T05:42:06.455Z,1.10
2024-05-09T05:45:09.917Z,1.20
2024-05-09T05:48:14.061Z,1.00
2024-05-09T05:51:17.068Z,1.08
2024-05-09T05:57:21.537Z,0.98
2024-05-09T06:00:34.346Z,1.17
2024-05-09T06:03:40.817Z,1.00
2024-05-09T06:06:43.411Z,1.02
2024-05-09T06:09:48.209Z,1.02
2024-05-09T06:12:52.469Z,1.00
2024-05-09T06:15:54.810Z,1.10
2024-05-09T06:18:58.103Z,1.33
2024-05-09T06:22:00.759Z,1.00
2024-05-09T06:25:03.629Z,1.10
2024-05-09T06:28:06.336Z,1.20
2024-05-09T06:34:11.510Z,1.25
2024-05-09T06:40:21.460Z,1.13
2024-05-09T06:43:27.863Z,1.48
2024-05-09T06:46:30.304Z,1.20
2024-05-09T06:49:33.035Z,1.00
2024-05-09T06:55:38.095Z,1.10
2024-05-09T07:01:43.190Z,1.20
2024-05-09T07:07:49.024Z,1.10
2024-05-09T07:10:51.245Z,1.08
2024-05-09T07:13:54.071Z,1.00
2024-05-09T07:16:56.199Z,1.10
2024-05-09T07:19:58.598Z,1.17
2024-05-09T07:23:00.833Z,1.15
2024-05-09T07:26:03.010Z,1.05
2024-05-09T07:29:05.149Z,1.33
2024-05-09T07:32:09.147Z,1.20
2024-05-09T07:35:11.374Z,1.25
2024-05-09T07:38:14.146Z,1.00
2024-05-09T07:44:19.537Z,1.00
2024-05-09T07:48:56.513Z,1.00
2024-05-09T07:53:52.246Z,1.25
2024-05-09T07:56:57.292Z,0.80
2024-05-09T07:59:59.675Z,1.00
2024-05-09T08:03:01.734Z,1.08
2024-05-09T08:06:03.989Z,0.88
2024-05-09T08:09:10.841Z,1.30
2024-05-09T08:12:15.796Z,0.90
2024-05-09T08:15:17.993Z,0.90
2024-05-09T08:18:20.378Z,1.15
2024-05-09T08:21:22.650Z,0.90
2024-05-09T08:24:25.018Z,1.00
2024-05-09T08:27:27.669Z,1.00
2024-05-09T08:33:47.356Z,1.08
2024-05-09T08:36:50.129Z,1.00
2024-05-09T08:39:52.377Z,1.00
2024-05-09T08:42:56.207Z,1.30
2024-05-09T08:45:59.506Z,0.93
2024-05-09T08:49:03.529Z,1.08
2024-05-09T08:52:06.356Z,1.10
2024-05-09T08:55:08.833Z,1.00
2024-05-09T08:58:15.419Z,1.10
2024-05-09T09:01:21.204Z,1.00
2024-05-09T09:04:23.741Z,1.15
2024-05-09T09:10:32.255Z,1.10
2024-05-09T09:13:38.223Z,1.02
2024-05-09T09:16:40.270Z,1.13
2024-05-09T09:19:43.362Z,1.00
2024-05-09T09:22:45.558Z,1.05
2024-05-09T09:25:47.922Z,0.90
2024-05-09T09:28:50.138Z,1.10
2024-05-09T09:32:05.781Z,1.10
2024-05-09T09:35:08.273Z,1.10
2024-05-09T09:38:27.901Z,1.15
2024-05-09T09:41:30.769Z,1.40
2024-05-09T09:44:39.680Z,1.23
2024-05-09T09:47:45.036Z,1.13
2024-05-09T09:50:48.757Z,1.00
2024-05-09T09:53:52.819Z,1.10
2024-05-09T09:56:56.849Z,0.90
2024-05-09T09:59:59.836Z,0.98
2024-05-09T10:03:02.521Z,1.10
2024-05-09T10:06:05.815Z,1.20
2024-05-09T10:09:15.157Z,0.80
2024-05-09T10:12:21.063Z,0.98
2024-05-09T10:15:23.046Z,1.00
2024-05-09T10:18:36.649Z,1.17
2024-05-09T10:21:47.106Z,0.90
2024-05-09T10:24:54.854Z,1.00
2024-05-09T10:27:57.090Z,1.00
2024-05-09T10:31:06.887Z,1.00
2024-05-09T10:34:22.419Z,0.80
2024-05-09T10:37:27.126Z,1.00
2024-05-09T10:40:31.706Z,0.80
2024-05-09T10:43:35.607Z,1.10
2024-05-09T10:46:37.627Z,0.90
2024-05-09T10:49:39.770Z,0.90
2024-05-09T10:52:42.050Z,1.10
2024-05-09T10:55:44.126Z,0.98
2024-05-09T10:58:46.164Z,1.00
2024-05-09T11:01:48.328Z,1.00
2024-05-09T11:04:53.181Z,1.08
2024-05-09T11:07:55.860Z,0.90
2024-05-09T11:10:59.901Z,1.00
2024-05-09T11:14:12.306Z,1.00
2024-05-09T11:17:14.325Z,0.98
2024-05-09T11:20:22.945Z,1.17
2024-05-09T11:23:31.539Z,1.00
2024-05-09T11:26:33.904Z,1.27
2024-05-09T11:29:39.580Z,1.50
2024-05-09T11:32:43.164Z,0.98
2024-05-09T11:35:46.893Z,1.02
2024-05-09T11:38:49.218Z,1.20
2024-05-09T11:41:51.320Z,1.20
2024-05-09T11:44:53.440Z,1.10
2024-05-09T11:47:55.911Z,1.13
2024-05-09T11:50:58.247Z,1.00
2024-05-09T11:54:00.411Z,1.20
2024-05-09T11:57:02.808Z,0.90
2024-05-09T12:00:07.380Z,1.05
2024-05-09T12:03:11.555Z,1.00
2024-05-09T12:06:13.723Z,1.20
2024-05-09T12:09:15.816Z,0.90
2024-05-09T12:12:18.024Z,1.83
2024-05-09T12:15:20.206Z,1.33
2024-05-09T12:18:22.370Z,0.90
2024-05-09T12:21:25.194Z,1.00
2024-05-09T12:24:29.291Z,0.93
2024-05-09T12:27:31.476Z,0.95
2024-05-09T12:30:38.257Z,1.05
2024-05-09T12:33:42.681Z,1.10
2024-05-09T12:36:44.932Z,1.10
2024-05-09T12:39:47.026Z,0.90
2024-05-09T12:42:49.852Z,1.00
2024-05-09T12:45:54.743Z,1.27
2024-05-09T12:48:57.143Z,1.80
2024-05-09T12:55:01.534Z,1.40
2024-05-09T12:58:03.938Z,1.30
2024-05-09T13:01:06.821Z,1.27
2024-05-09T13:04:11.784Z,1.02
2024-05-09T13:07:14.142Z,1.20
2024-05-09T13:10:25.387Z,1.10
2024-05-09T13:13:33.646Z,1.10
2024-05-09T13:19:38.014Z,1.08
2024-05-09T13:22:40.656Z,1.23
2024-05-09T13:25:42.862Z,1.20
2024-05-09T13:28:44.978Z,1.23
2024-05-09T13:31:47.605Z,1.10
2024-05-09T13:34:49.836Z,1.52
2024-05-09T13:37:51.882Z,1.08
2024-05-09T13:40:54.536Z,1.30
2024-05-09T13:43:56.801Z,1.27
2024-05-09T13:46:59.255Z,1.30
2024-05-09T13:53:09.359Z,1.30
2024-05-09T13:56:13.643Z,1.20
2024-05-09T13:59:16.022Z,1.20
2024-05-09T14:02:18.634Z,1.63
2024-05-09T14:05:21.239Z,1.30
2024-05-09T14:11:25.694Z,1.27
2024-05-09T14:14:28.251Z,1.30
2024-05-09T14:17:30.680Z,1.50
2024-05-09T14:20:32.945Z,1.48
2024-05-09T14:23:35.183Z,1.00
2024-05-09T14:26:37.399Z,1.45
2024-05-09T14:29:39.714Z,1.60
2024-05-09T14:32:42.244Z,1.10
2024-05-09T14:35:44.846Z,2.75
2024-05-09T14:38:47.168Z,1.88
2024-05-09T14:41:49.212Z,1.25
2024-05-09T14:44:51.431Z,3.10
2024-05-09T14:47:54.974Z,1.95
2024-05-09T14:50:57.340Z,1.35
2024-05-09T14:53:59.476Z,1.60
2024-05-09T14:57:01.663Z,1.63
2024-05-09T15:00:06.948Z,1.83
2024-05-09T15:03:12.662Z,2.30
2024-05-09T15:06:14.931Z,1.80
2024-05-09T15:09:17.260Z,1.30
2024-05-09T15:12:19.411Z,1.20
2024-05-09T15:15:23.797Z,1.70
2024-05-09T15:18:27.072Z,1.40
2024-05-09T15:21:29.266Z,1.67
2024-05-09T15:24:33.389Z,1.52
2024-05-09T15:27:35.561Z,1.80
2024-05-09T15:30:37.934Z,1.40
2024-05-09T15:33:41.855Z,1.35
2024-05-09T15:36:44.468Z,1.70
2024-05-09T15:42:49.509Z,1.70
2024-05-09T15:45:51.816Z,1.60
2024-05-09T15:48:54.127Z,1.70
2024-05-09T15:51:56.612Z,1.42
2024-05-09T15:54:58.589Z,1.85
2024-05-09T15:58:02.036Z,2.42
2024-05-09T16:01:04.724Z,2.70
2024-05-09T16:04:06.968Z,3.10
2024-05-09T16:07:09.668Z,2.80
2024-05-09T16:10:19.722Z,1.98
2024-05-09T16:13:27.177Z,2.58
2024-05-09T16:16:29.673Z,2.25
2024-05-09T16:19:31.850Z,1.55
2024-05-09T16:22:33.984Z,1.80
2024-05-09T16:25:36.614Z,1.45
2024-05-09T16:28:38.976Z,1.20
2024-05-09T16:31:41.063Z,1.25
2024-05-09T16:34:43.303Z,2.20
2024-05-09T16:37:45.794Z,2.75
2024-05-09T16:40:53.783Z,2.40
2024-05-09T16:43:57.976Z,1.80
2024-05-09T16:47:00.406Z,2.35
2024-05-09T16:50:03.039Z,2.13
2024-05-09T16:53:06.997Z,1.73
2024-05-09T16:56:09.502Z,1.30
2024-05-09T16:59:14.239Z,1.20
2024-05-09T17:02:16.393Z,1.52
2024-05-09T17:05:18.868Z,1.35
2024-05-09T17:08:21.280Z,1.70
2024-05-09T17:11:23.570Z,1.40
2024-05-09T17:14:26.104Z,1.80
2024-05-09T17:17:28.839Z,2.17
2024-05-09T17:20:34.795Z,3.45
2024-05-09T17:23:39.550Z,2.42
2024-05-09T17:26:42.035Z,2.90
2024-05-09T17:29:44.181Z,1.92
2024-05-09T17:32:46.516Z,1.85
2024-05-09T17:35:50.881Z,2.90
2024-05-09T17:38:53.295Z,2.53
2024-05-09T17:41:55.402Z,2.50
2024-05-09T17:44:57.434Z,3.47
2024-05-09T17:48:00.284Z,2.47
2024-05-09T17:51:02.618Z,2.60
2024-05-09T17:54:04.813Z,2.88
2024-05-09T17:57:07.959Z,2.90
2024-05-09T18:00:11.902Z,2.95
2024-05-09T18:03:16.848Z,3.78
2024-05-09T18:06:19.142Z,3.28
2024-05-09T18:09:21.272Z,2.83
2024-05-09T18:12:23.294Z,3.30
2024-05-09T18:15:25.220Z,2.93
2024-05-09T18:18:27.504Z,3.67
2024-05-09T18:21:29.864Z,3.08
2024-05-09T18:24:32.082Z,3.53
2024-05-09T18:27:34.451Z,3.30
2024-05-09T18:30:37.447Z,3.90
2024-05-09T18:33:40.273Z,4.22
2024-05-09T18:36:42.736Z,4.88
2024-05-09T18:39:44.985Z,5.53
2024-05-09T18:42:47.172Z,5.00
2024-05-09T18:45:49.246Z,4.75
2024-05-09T18:48:51.467Z,4.97
2024-05-09T18:51:53.932Z,4.88
2024-05-09T18:54:56.195Z,4.85
2024-05-09T18:57:58.374Z,4.50
2024-05-09T19:01:02.128Z,4.53
2024-05-09T19:04:04.974Z,4.93
2024-05-09T19:07:08.837Z,5.50
2024-05-09T19:10:22.038Z,5.53
2024-05-09T19:13:27.816Z,6.43
2024-05-09T19:16:31.290Z,6.68
2024-05-09T19:19:33.540Z,6.55
2024-05-09T19:22:35.865Z,6.57
2024-05-09T19:25:37.944Z,5.35
2024-05-09T19:28:40.640Z,5.50
2024-05-09T19:31:42.694Z,5.68
2024-05-09T19:38:32.336Z,4.32
2024-05-09T19:41:35.323Z,5.40
2024-05-09T19:44:37.277Z,6.17
2024-05-09T19:47:42.092Z,5.17
2024-05-09T19:50:45.758Z,5.95
2024-05-09T19:53:50.709Z,5.25
2024-05-09T19:56:52.861Z,6.55
2024-05-09T20:03:00.512Z,4.25
2024-05-09T20:06:03.378Z,3.80
2024-05-09T20:09:05.923Z,3.83
2024-05-09T20:12:09.525Z,4.05
2024-05-09T20:15:11.996Z,3.90
2024-05-09T20:18:14.399Z,3.65
2024-05-09T20:21:16.882Z,3.25
2024-05-09T20:24:18.892Z,3.03
2024-05-09T20:27:20.952Z,3.40
2024-05-09T20:30:30.532Z,2.77
2024-05-09T20:33:34.735Z,2.90
2024-05-09T20:36:37.012Z,3.50
2024-05-09T20:39:39.045Z,3.50
2024-05-09T20:42:41.267Z,2.90
2024-05-09T20:45:43.512Z,2.57
2024-05-09T20:48:45.733Z,2.90
2024-05-09T20:51:47.943Z,2.90
2024-05-09T20:54:50.187Z,3.57
2024-05-09T20:57:52.676Z,3.00
2024-05-09T21:00:54.914Z,2.85
2024-05-09T21:03:57.204Z,2.67
2024-05-09T21:06:59.327Z,2.55
2024-05-09T21:10:01.574Z,2.20
2024-05-09T21:13:04.648Z,2.60
2024-05-09T21:16:07.996Z,2.15
2024-05-09T21:19:10.248Z,2.58
2024-05-09T21:22:15.205Z,2.40
2024-05-09T21:25:17.568Z,2.25
2024-05-09T21:28:19.765Z,2.22
2024-05-09T21:31:22.027Z,2.50
2024-05-09T21:34:24.484Z,2.03
2024-05-09T21:37:26.614Z,2.05
2024-05-09T21:40:34.285Z,2.00
2024-05-09T21:43:38.586Z,2.25
2024-05-09T21:46:40.911Z,1.95
2024-05-09T21:49:43.182Z,2.10
2024-05-09T21:52:45.618Z,1.90
2024-05-09T21:55:47.679Z,2.20
2024-05-09T21:58:50.154Z,2.20
2024-05-09T22:01:52.432Z,2.17
2024-05-09T22:04:54.789Z,1.95
2024-05-09T22:07:57.227Z,2.10
2024-05-09T22:10:59.369Z,2.33
2024-05-09T22:14:01.618Z,2.10
2024-05-09T22:17:07.013Z,2.37
2024-05-09T22:20:17.834Z,2.25
2024-05-09T22:23:23.926Z,2.38
2024-05-09T22:26:25.809Z,2.20
2024-05-09T22:29:27.805Z,2.10
2024-05-09T22:32:29.871Z,2.08
2024-05-09T22:35:31.836Z,1.93
2024-05-09T22:38:33.903Z,1.98
2024-05-09T22:41:35.919Z,1.80
2024-05-09T22:44:37.853Z,2.05
2024-05-09T22:47:39.854Z,2.00
2024-05-09T22:50:42.302Z,1.80
2024-05-09T22:53:44.416Z,1.77
2024-05-09T22:56:46.442Z,2.03
2024-05-09T22:59:50.668Z,1.80
2024-05-09T23:02:53.156Z,1.90
2024-05-09T23:05:55.271Z,2.03
2024-05-09T23:09:00.413Z,1.80
2024-05-09T23:12:02.425Z,1.80
2024-05-09T23:15:05.643Z,1.87
2024-05-09T23:21:11.392Z,1.50
2024-05-09T23:24:13.514Z,1.48
2024-05-09T23:27:15.657Z,1.60
2024-05-09T23:30:28.442Z,1.50
2024-05-09T23:33:36.808Z,1.80
2024-05-09T23:36:39.223Z,1.48
2024-05-09T23:39:41.505Z,1.80
2024-05-09T23:42:44.245Z,2.10
2024-05-09T23:45:46.292Z,2.00
2024-05-09T23:48:48.563Z,1.60
2024-05-09T23:51:50.948Z,1.80
2024-05-09T23:54:53.315Z,1.80
2024-05-09T23:57:55.747Z,1.35
